sensor_id;sensor_type;location;lat;lon;timestamp;pressure;altitude;pressure_sealevel;temperature;humidity
31044;BME280;17710;52.520;13.352;2022-08-02T00:02:00;101430.91;;;25.73;45.05
31044;BME280;17710;52.520;13.352;2022-08-02T00:04:28;101435.84;;;25.59;45.30
31044;BME280;17710;52.520;13.352;2022-08-02T00:06:55;101442.34;;;25.77;44.78
31044;BME280;17710;52.520;13.352;2022-08-02T00:09:21;101443.28;;;25.97;43.34
31044;BME280;17710;52.520;13.352;2022-08-02T00:11:49;101445.00;;;25.98;43.21
31044;BME280;17710;52.520;13.352;2022-08-02T00:14:16;101445.50;;;25.82;42.50
31044;BME280;17710;52.520;13.352;2022-08-02T00:16:42;101450.56;;;25.96;42.46
31044;BME280;17710;52.520;13.352;2022-08-02T00:19:09;101454.66;;;25.91;42.54
31044;BME280;17710;52.520;13.352;2022-08-02T00:21:35;101451.72;;;26.03;41.62
31044;BME280;17710;52.520;13.352;2022-08-02T00:24:02;101442.75;;;26.03;41.21
31044;BME280;17710;52.520;13.352;2022-08-02T00:26:28;101435.03;;;25.98;41.79
31044;BME280;17710;52.520;13.352;2022-08-02T00:28:56;101447.34;;;26.12;41.42
31044;BME280;17710;52.520;13.352;2022-08-02T00:31:22;101437.44;;;26.01;41.62
31044;BME280;17710;52.520;13.352;2022-08-02T00:33:49;101431.91;;;26.03;41.85
31044;BME280;17710;52.520;13.352;2022-08-02T00:36:15;101439.75;;;26.06;41.69
31044;BME280;17710;52.520;13.352;2022-08-02T00:38:42;101433.06;;;26.10;41.59
31044;BME280;17710;52.520;13.352;2022-08-02T00:41:13;101437.91;;;26.06;41.19
31044;BME280;17710;52.520;13.352;2022-08-02T00:43:41;101432.47;;;25.97;41.49
31044;BME280;17710;52.520;13.352;2022-08-02T00:46:09;101437.16;;;25.95;40.75
31044;BME280;17710;52.520;13.352;2022-08-02T00:48:35;101436.88;;;25.98;41.06
31044;BME280;17710;52.520;13.352;2022-08-02T00:51:02;101439.00;;;25.94;41.13
31044;BME280;17710;52.520;13.352;2022-08-02T00:53:29;101443.47;;;25.74;40.62
31044;BME280;17710;52.520;13.352;2022-08-02T00:55:56;101432.81;;;25.83;40.34
31044;BME280;17710;52.520;13.352;2022-08-02T00:58:22;101441.81;;;25.83;40.15
31044;BME280;17710;52.520;13.352;2022-08-02T01:00:49;101446.66;;;25.79;40.20
31044;BME280;17710;52.520;13.352;2022-08-02T01:03:16;101440.81;;;25.84;40.12
31044;BME280;17710;52.520;13.352;2022-08-02T01:05:43;101438.66;;;25.78;40.30
31044;BME280;17710;52.520;13.352;2022-08-02T01:08:09;101448.50;;;25.79;39.95
31044;BME280;17710;52.520;13.352;2022-08-02T01:10:36;101448.75;;;25.76;40.02
31044;BME280;17710;52.520;13.352;2022-08-02T01:13:02;101454.63;;;25.81;40.13
31044;BME280;17710;52.520;13.352;2022-08-02T01:15:28;101453.94;;;25.58;39.92
31044;BME280;17710;52.520;13.352;2022-08-02T01:17:59;101448.84;;;25.65;39.93
31044;BME280;17710;52.520;13.352;2022-08-02T01:20:45;101445.59;;;25.50;40.37
31044;BME280;17710;52.520;13.352;2022-08-02T01:23:25;101453.66;;;25.61;40.09
31044;BME280;17710;52.520;13.352;2022-08-02T01:26:12;101456.81;;;25.46;40.37
31044;BME280;17710;52.520;13.352;2022-08-02T01:28:48;101453.84;;;25.69;39.72
31044;BME280;17710;52.520;13.352;2022-08-02T01:31:19;101451.69;;;25.63;39.75
31044;BME280;17710;52.520;13.352;2022-08-02T01:33:51;101456.75;;;25.57;40.10
31044;BME280;17710;52.520;13.352;2022-08-02T01:36:22;101454.44;;;25.52;40.04
31044;BME280;17710;52.520;13.352;2022-08-02T01:38:52;101460.84;;;25.72;39.82
31044;BME280;17710;52.520;13.352;2022-08-02T01:41:22;101457.00;;;25.74;39.29
31044;BME280;17710;52.520;13.352;2022-08-02T01:43:54;101469.34;;;25.67;39.29
31044;BME280;17710;52.520;13.352;2022-08-02T01:46:23;101467.13;;;25.72;39.40
31044;BME280;17710;52.520;13.352;2022-08-02T01:48:52;101461.97;;;25.69;39.17
31044;BME280;17710;52.520;13.352;2022-08-02T01:51:20;101461.78;;;25.61;39.27
31044;BME280;17710;52.520;13.352;2022-08-02T01:54:10;101461.78;;;25.61;39.41
31044;BME280;17710;52.520;13.352;2022-08-02T01:56:37;101462.56;;;25.31;39.72
31044;BME280;17710;52.520;13.352;2022-08-02T01:59:07;101465.53;;;25.49;39.07
31044;BME280;17710;52.520;13.352;2022-08-02T02:01:37;101457.41;;;25.49;38.88
31044;BME280;17710;52.520;13.352;2022-08-02T02:04:05;101462.09;;;25.47;39.08
31044;BME280;17710;52.520;13.352;2022-08-02T02:06:33;101465.47;;;25.39;39.23
31044;BME280;17710;52.520;13.352;2022-08-02T02:09:01;101460.09;;;25.49;39.06
31044;BME280;17710;52.520;13.352;2022-08-02T02:11:28;101460.25;;;25.48;38.33
31044;BME280;17710;52.520;13.352;2022-08-02T02:13:57;101466.59;;;25.37;38.76
31044;BME280;17710;52.520;13.352;2022-08-02T02:16:25;101469.88;;;25.40;38.32
31044;BME280;17710;52.520;13.352;2022-08-02T02:18:53;101460.19;;;25.38;39.14
31044;BME280;17710;52.520;13.352;2022-08-02T02:21:20;101451.78;;;25.41;38.14
31044;BME280;17710;52.520;13.352;2022-08-02T02:23:48;101456.97;;;25.44;38.28
31044;BME280;17710;52.520;13.352;2022-08-02T02:26:15;101461.19;;;25.37;38.20
31044;BME280;17710;52.520;13.352;2022-08-02T02:28:45;101469.16;;;25.38;38.25
31044;BME280;17710;52.520;13.352;2022-08-02T02:31:15;101462.44;;;25.33;37.90
31044;BME280;17710;52.520;13.352;2022-08-02T02:33:47;101456.41;;;25.50;38.46
31044;BME280;17710;52.520;13.352;2022-08-02T02:36:15;101464.13;;;25.55;38.14
31044;BME280;17710;52.520;13.352;2022-08-02T02:38:43;101461.72;;;25.52;38.00
31044;BME280;17710;52.520;13.352;2022-08-02T02:41:11;101463.34;;;25.43;38.17
31044;BME280;17710;52.520;13.352;2022-08-02T02:43:39;101463.06;;;25.57;37.12
31044;BME280;17710;52.520;13.352;2022-08-02T02:46:08;101460.09;;;25.49;37.08
31044;BME280;17710;52.520;13.352;2022-08-02T02:48:35;101462.75;;;25.60;37.06
31044;BME280;17710;52.520;13.352;2022-08-02T02:51:04;101463.25;;;25.54;36.85
31044;BME280;17710;52.520;13.352;2022-08-02T02:53:31;101462.38;;;25.44;36.74
31044;BME280;17710;52.520;13.352;2022-08-02T02:55:58;101468.88;;;25.41;35.96
31044;BME280;17710;52.520;13.352;2022-08-02T02:58:25;101467.56;;;25.36;35.44
31044;BME280;17710;52.520;13.352;2022-08-02T03:00:53;101471.34;;;25.24;36.00
31044;BME280;17710;52.520;13.352;2022-08-02T03:03:37;101477.06;;;25.10;35.64
31044;BME280;17710;52.520;13.352;2022-08-02T03:06:05;101470.50;;;24.91;36.54
31044;BME280;17710;52.520;13.352;2022-08-02T03:08:32;101476.66;;;24.82;36.88
31044;BME280;17710;52.520;13.352;2022-08-02T03:10:58;101481.81;;;24.85;37.17
31044;BME280;17710;52.520;13.352;2022-08-02T03:13:25;101484.56;;;24.63;37.81
31044;BME280;17710;52.520;13.352;2022-08-02T03:15:51;101485.56;;;24.62;37.57
31044;BME280;17710;52.520;13.352;2022-08-02T03:18:31;101484.34;;;24.55;38.32
31044;BME280;17710;52.520;13.352;2022-08-02T03:21:00;101486.94;;;24.56;38.70
31044;BME280;17710;52.520;13.352;2022-08-02T03:23:28;101486.00;;;24.78;38.92
31044;BME280;17710;52.520;13.352;2022-08-02T03:25:54;101483.09;;;24.70;39.83
31044;BME280;17710;52.520;13.352;2022-08-02T03:28:20;101488.75;;;24.67;40.66
31044;BME280;17710;52.520;13.352;2022-08-02T03:30:47;101483.34;;;24.56;41.70
31044;BME280;17710;52.520;13.352;2022-08-02T03:33:13;101494.16;;;24.56;42.15
31044;BME280;17710;52.520;13.352;2022-08-02T03:35:41;101497.25;;;24.18;43.45
31044;BME280;17710;52.520;13.352;2022-08-02T03:38:08;101492.00;;;24.39;43.13
31044;BME280;17710;52.520;13.352;2022-08-02T03:40:37;101491.03;;;24.06;43.86
31044;BME280;17710;52.520;13.352;2022-08-02T03:43:04;101498.59;;;23.68;44.72
31044;BME280;17710;52.520;13.352;2022-08-02T03:45:31;101493.53;;;23.17;46.24
31044;BME280;17710;52.520;13.352;2022-08-02T03:47:58;101503.81;;;23.12;46.68
31044;BME280;17710;52.520;13.352;2022-08-02T03:50:25;101502.00;;;23.48;45.74
31044;BME280;17710;52.520;13.352;2022-08-02T03:52:52;101504.59;;;23.60;45.64
31044;BME280;17710;52.520;13.352;2022-08-02T03:55:18;101506.72;;;23.79;45.03
31044;BME280;17710;52.520;13.352;2022-08-02T03:57:46;101510.91;;;23.94;44.69
31044;BME280;17710;52.520;13.352;2022-08-02T04:00:17;101510.75;;;23.62;45.17
31044;BME280;17710;52.520;13.352;2022-08-02T04:02:44;101504.75;;;23.81;44.50
31044;BME280;17710;52.520;13.352;2022-08-02T04:05:10;101507.66;;;23.56;44.99
31044;BME280;17710;52.520;13.352;2022-08-02T04:07:36;101511.25;;;23.90;44.53
31044;BME280;17710;52.520;13.352;2022-08-02T04:10:03;101505.25;;;23.97;44.38
31044;BME280;17710;52.520;13.352;2022-08-02T04:12:30;101513.59;;;24.05;44.20
31044;BME280;17710;52.520;13.352;2022-08-02T04:14:58;101514.50;;;24.28;43.78
31044;BME280;17710;52.520;13.352;2022-08-02T04:17:26;101520.50;;;24.20;43.73
31044;BME280;17710;52.520;13.352;2022-08-02T04:20:00;101525.16;;;24.30;43.57
31044;BME280;17710;52.520;13.352;2022-08-02T04:22:30;101526.00;;;24.30;43.64
31044;BME280;17710;52.520;13.352;2022-08-02T04:25:02;101530.06;;;24.36;43.72
31044;BME280;17710;52.520;13.352;2022-08-02T04:27:30;101531.63;;;24.16;44.33
31044;BME280;17710;52.520;13.352;2022-08-02T04:29:59;101526.94;;;23.62;45.73
31044;BME280;17710;52.520;13.352;2022-08-02T04:32:26;101531.84;;;23.91;45.00
31044;BME280;17710;52.520;13.352;2022-08-02T04:34:53;101533.69;;;23.90;45.06
31044;BME280;17710;52.520;13.352;2022-08-02T04:37:20;101538.72;;;23.83;45.34
31044;BME280;17710;52.520;13.352;2022-08-02T04:39:46;101535.31;;;23.93;45.59
31044;BME280;17710;52.520;13.352;2022-08-02T04:42:19;101541.31;;;23.85;46.10
31044;BME280;17710;52.520;13.352;2022-08-02T04:44:45;101539.56;;;23.84;45.99
31044;BME280;17710;52.520;13.352;2022-08-02T04:47:13;101538.59;;;23.85;46.04
31044;BME280;17710;52.520;13.352;2022-08-02T04:49:40;101537.03;;;23.94;45.69
31044;BME280;17710;52.520;13.352;2022-08-02T04:52:06;101542.16;;;23.97;45.57
31044;BME280;17710;52.520;13.352;2022-08-02T04:54:33;101540.81;;;23.69;46.08
31044;BME280;17710;52.520;13.352;2022-08-02T04:56:59;101538.09;;;23.69;46.24
31044;BME280;17710;52.520;13.352;2022-08-02T04:59:25;101536.66;;;23.76;46.00
31044;BME280;17710;52.520;13.352;2022-08-02T05:01:52;101542.66;;;23.44;46.27
31044;BME280;17710;52.520;13.352;2022-08-02T05:04:19;101544.22;;;23.71;46.03
31044;BME280;17710;52.520;13.352;2022-08-02T05:06:46;101550.91;;;23.89;45.51
31044;BME280;17710;52.520;13.352;2022-08-02T05:09:12;101545.56;;;23.76;45.27
31044;BME280;17710;52.520;13.352;2022-08-02T05:11:38;101544.00;;;23.85;45.23
31044;BME280;17710;52.520;13.352;2022-08-02T05:14:05;101546.31;;;23.78;45.20
31044;BME280;17710;52.520;13.352;2022-08-02T05:16:31;101544.16;;;23.95;44.90
31044;BME280;17710;52.520;13.352;2022-08-02T05:18:58;101543.88;;;23.75;44.09
31044;BME280;17710;52.520;13.352;2022-08-02T05:21:26;101542.53;;;24.03;44.14
31044;BME280;17710;52.520;13.352;2022-08-02T05:23:52;101535.47;;;24.47;42.91
31044;BME280;17710;52.520;13.352;2022-08-02T05:26:18;101546.22;;;24.80;42.09
31044;BME280;17710;52.520;13.352;2022-08-02T05:28:45;101551.34;;;24.94;41.16
31044;BME280;17710;52.520;13.352;2022-08-02T05:31:11;101549.44;;;25.17;40.50
31044;BME280;17710;52.520;13.352;2022-08-02T05:33:37;101554.59;;;25.20;39.23
31044;BME280;17710;52.520;13.352;2022-08-02T05:36:04;101557.50;;;25.28;39.08
31044;BME280;17710;52.520;13.352;2022-08-02T05:38:32;101563.66;;;25.51;38.78
31044;BME280;17710;52.520;13.352;2022-08-02T05:40:58;101569.56;;;24.92;40.20
31044;BME280;17710;52.520;13.352;2022-08-02T05:43:25;101572.91;;;25.17;40.12
31044;BME280;17710;52.520;13.352;2022-08-02T05:45:51;101576.59;;;25.27;39.43
31044;BME280;17710;52.520;13.352;2022-08-02T05:48:18;101569.72;;;25.44;39.51
31044;BME280;17710;52.520;13.352;2022-08-02T05:50:48;101573.13;;;25.25;39.55
31044;BME280;17710;52.520;13.352;2022-08-02T05:53:21;101579.41;;;25.57;38.00
31044;BME280;17710;52.520;13.352;2022-08-02T05:55:56;101584.41;;;25.62;37.10
31044;BME280;17710;52.520;13.352;2022-08-02T05:58:35;101583.72;;;25.49;37.45
31044;BME280;17710;52.520;13.352;2022-08-02T06:01:08;101584.56;;;25.49;36.38
31044;BME280;17710;52.520;13.352;2022-08-02T06:03:39;101584.97;;;25.76;35.45
31044;BME280;17710;52.520;13.352;2022-08-02T06:06:13;101587.22;;;25.71;34.49
31044;BME280;17710;52.520;13.352;2022-08-02T06:08:42;101590.72;;;26.13;34.82
31044;BME280;17710;52.520;13.352;2022-08-02T06:11:12;101583.81;;;26.00;34.01
31044;BME280;17710;52.520;13.352;2022-08-02T06:13:39;101596.97;;;26.04;34.72
31044;BME280;17710;52.520;13.352;2022-08-02T06:16:06;101583.81;;;26.51;34.18
31044;BME280;17710;52.520;13.352;2022-08-02T06:18:34;101584.09;;;26.48;34.15
31044;BME280;17710;52.520;13.352;2022-08-02T06:21:02;101591.28;;;26.28;34.47
31044;BME280;17710;52.520;13.352;2022-08-02T06:23:29;101589.25;;;26.51;34.21
31044;BME280;17710;52.520;13.352;2022-08-02T06:25:57;101582.09;;;26.50;34.80
31044;BME280;17710;52.520;13.352;2022-08-02T06:28:26;101589.38;;;26.49;34.86
31044;BME280;17710;52.520;13.352;2022-08-02T06:30:53;101580.50;;;26.87;34.05
31044;BME280;17710;52.520;13.352;2022-08-02T06:33:22;101577.88;;;27.16;34.23
31044;BME280;17710;52.520;13.352;2022-08-02T06:35:54;101585.06;;;26.87;34.08
31044;BME280;17710;52.520;13.352;2022-08-02T06:38:27;101587.84;;;27.45;33.33
31044;BME280;17710;52.520;13.352;2022-08-02T06:41:02;101579.00;;;27.33;33.78
31044;BME280;17710;52.520;13.352;2022-08-02T06:43:37;101573.72;;;27.22;33.66
31044;BME280;17710;52.520;13.352;2022-08-02T06:46:06;101578.28;;;27.21;33.35
31044;BME280;17710;52.520;13.352;2022-08-02T06:48:33;101575.84;;;27.18;33.63
31044;BME280;17710;52.520;13.352;2022-08-02T06:51:01;101564.31;;;27.74;33.33
31044;BME280;17710;52.520;13.352;2022-08-02T06:53:30;101566.78;;;28.04;32.28
31044;BME280;17710;52.520;13.352;2022-08-02T06:55:57;101574.84;;;27.77;32.64
31044;BME280;17710;52.520;13.352;2022-08-02T06:58:23;101582.84;;;27.88;32.32
31044;BME280;17710;52.520;13.352;2022-08-02T07:00:51;101569.31;;;27.69;32.31
31044;BME280;17710;52.520;13.352;2022-08-02T07:03:18;101571.19;;;27.68;31.74
31044;BME280;17710;52.520;13.352;2022-08-02T07:05:44;101571.47;;;27.56;32.26
31044;BME280;17710;52.520;13.352;2022-08-02T07:08:12;101566.75;;;27.29;32.35
31044;BME280;17710;52.520;13.352;2022-08-02T07:10:39;101557.75;;;27.28;32.74
31044;BME280;17710;52.520;13.352;2022-08-02T07:13:05;101557.31;;;27.52;32.49
31044;BME280;17710;52.520;13.352;2022-08-02T07:15:32;101567.44;;;27.41;32.15
31044;BME280;17710;52.520;13.352;2022-08-02T07:17:59;101571.47;;;27.36;32.39
31044;BME280;17710;52.520;13.352;2022-08-02T07:20:26;101572.03;;;27.50;32.18
31044;BME280;17710;52.520;13.352;2022-08-02T07:22:52;101564.53;;;27.90;31.81
31044;BME280;17710;52.520;13.352;2022-08-02T07:25:19;101564.09;;;28.14;31.39
31044;BME280;17710;52.520;13.352;2022-08-02T07:27:45;101564.88;;;28.34;31.19
31044;BME280;17710;52.520;13.352;2022-08-02T07:30:12;101561.94;;;27.98;30.89
31044;BME280;17710;52.520;13.352;2022-08-02T07:32:38;101565.34;;;28.10;30.65
31044;BME280;17710;52.520;13.352;2022-08-02T07:35:08;101561.69;;;27.92;30.96
31044;BME280;17710;52.520;13.352;2022-08-02T07:37:35;101559.53;;;28.42;30.26
31044;BME280;17710;52.520;13.352;2022-08-02T07:40:03;101557.41;;;28.36;30.42
31044;BME280;17710;52.520;13.352;2022-08-02T07:42:30;101563.78;;;28.17;30.52
31044;BME280;17710;52.520;13.352;2022-08-02T07:44:56;101566.66;;;27.96;30.59
31044;BME280;17710;52.520;13.352;2022-08-02T07:47:22;101565.66;;;27.97;30.24
31044;BME280;17710;52.520;13.352;2022-08-02T07:49:49;101555.31;;;28.10;30.58
31044;BME280;17710;52.520;13.352;2022-08-02T07:52:16;101550.38;;;28.16;30.33
31044;BME280;17710;52.520;13.352;2022-08-02T07:54:43;101557.56;;;27.78;30.92
31044;BME280;17710;52.520;13.352;2022-08-02T07:57:09;101550.41;;;27.77;30.75
31044;BME280;17710;52.520;13.352;2022-08-02T07:59:35;101546.09;;;27.94;30.28
31044;BME280;17710;52.520;13.352;2022-08-02T08:02:02;101546.78;;;28.15;30.29
31044;BME280;17710;52.520;13.352;2022-08-02T08:04:28;101564.53;;;27.90;30.33
31044;BME280;17710;52.520;13.352;2022-08-02T08:06:55;101560.31;;;27.68;30.65
31044;BME280;17710;52.520;13.352;2022-08-02T08:09:23;101565.38;;;28.00;30.41
31044;BME280;17710;52.520;13.352;2022-08-02T08:11:49;101562.78;;;28.08;30.35
31044;BME280;17710;52.520;13.352;2022-08-02T08:14:16;101550.00;;;27.82;30.73
31044;BME280;17710;52.520;13.352;2022-08-02T08:16:42;101544.03;;;27.20;31.64
31044;BME280;17710;52.520;13.352;2022-08-02T08:19:09;101545.31;;;27.55;31.40
31044;BME280;17710;52.520;13.352;2022-08-02T08:21:35;101542.47;;;28.22;30.49
31044;BME280;17710;52.520;13.352;2022-08-02T08:24:02;101546.59;;;27.60;31.12
31044;BME280;17710;52.520;13.352;2022-08-02T08:26:30;101546.72;;;27.49;31.07
31044;BME280;17710;52.520;13.352;2022-08-02T08:28:59;101541.13;;;27.80;30.80
31044;BME280;17710;52.520;13.352;2022-08-02T08:31:26;101538.03;;;28.11;30.67
31044;BME280;17710;52.520;13.352;2022-08-02T08:33:52;101540.41;;;28.34;30.32
31044;BME280;17710;52.520;13.352;2022-08-02T08:36:18;101535.16;;;28.50;29.99
31044;BME280;17710;52.520;13.352;2022-08-02T08:38:45;101537.31;;;28.74;29.63
31044;BME280;17710;52.520;13.352;2022-08-02T08:41:14;101539.72;;;29.04;29.37
31044;BME280;17710;52.520;13.352;2022-08-02T08:43:42;101540.03;;;29.01;29.39
31044;BME280;17710;52.520;13.352;2022-08-02T08:46:10;101537.75;;;28.79;29.52
31044;BME280;17710;52.520;13.352;2022-08-02T08:48:40;101529.97;;;28.57;29.48
31044;BME280;17710;52.520;13.352;2022-08-02T08:51:12;101530.06;;;28.74;28.85
31044;BME280;17710;52.520;13.352;2022-08-02T08:53:42;101536.38;;;28.92;29.17
31044;BME280;17710;52.520;13.352;2022-08-02T08:56:11;101537.00;;;29.04;28.97
31044;BME280;17710;52.520;13.352;2022-08-02T08:58:37;101534.25;;;29.22;29.08
31044;BME280;17710;52.520;13.352;2022-08-02T09:01:06;101537.41;;;29.45;28.96
31044;BME280;17710;52.520;13.352;2022-08-02T09:03:32;101529.75;;;28.95;29.07
31044;BME280;17710;52.520;13.352;2022-08-02T09:05:59;101532.09;;;29.25;29.38
31044;BME280;17710;52.520;13.352;2022-08-02T09:08:25;101529.63;;;29.76;28.90
31044;BME280;17710;52.520;13.352;2022-08-02T09:10:53;101536.13;;;29.57;28.68
31044;BME280;17710;52.520;13.352;2022-08-02T09:13:21;101525.97;;;29.06;29.18
31044;BME280;17710;52.520;13.352;2022-08-02T09:15:53;101527.34;;;29.27;28.90
31044;BME280;17710;52.520;13.352;2022-08-02T09:18:28;101525.72;;;29.52;28.70
31044;BME280;17710;52.520;13.352;2022-08-02T09:20:56;101529.22;;;29.09;29.05
31044;BME280;17710;52.520;13.352;2022-08-02T09:23:23;101531.25;;;29.25;29.29
31044;BME280;17710;52.520;13.352;2022-08-02T09:25:56;101517.00;;;29.31;28.67
31044;BME280;17710;52.520;13.352;2022-08-02T09:28:28;101509.25;;;29.62;28.70
31044;BME280;17710;52.520;13.352;2022-08-02T09:31:06;101516.56;;;29.61;28.84
31044;BME280;17710;52.520;13.352;2022-08-02T09:33:37;101518.72;;;29.76;28.72
31044;BME280;17710;52.520;13.352;2022-08-02T09:36:05;101510.25;;;29.79;28.61
31044;BME280;17710;52.520;13.352;2022-08-02T09:38:33;101518.25;;;29.37;28.85
31044;BME280;17710;52.520;13.352;2022-08-02T09:41:00;101512.19;;;29.43;29.20
31044;BME280;17710;52.520;13.352;2022-08-02T09:43:37;101510.25;;;29.00;28.90
31044;BME280;17710;52.520;13.352;2022-08-02T09:46:14;101509.16;;;28.92;29.23
31044;BME280;17710;52.520;13.352;2022-08-02T09:48:53;101507.22;;;29.03;28.82
31044;BME280;17710;52.520;13.352;2022-08-02T09:51:21;101505.00;;;28.43;30.12
31044;BME280;17710;52.520;13.352;2022-08-02T09:53:49;101503.78;;;28.83;29.67
31044;BME280;17710;52.520;13.352;2022-08-02T09:56:17;101500.81;;;28.76;29.80
31044;BME280;17710;52.520;13.352;2022-08-02T09:58:44;101503.03;;;28.36;30.22
31044;BME280;17710;52.520;13.352;2022-08-02T10:01:11;101503.38;;;27.86;30.78
31044;BME280;17710;52.520;13.352;2022-08-02T10:03:54;101496.31;;;28.40;30.48
31044;BME280;17710;52.520;13.352;2022-08-02T10:06:21;101504.97;;;28.53;30.43
31044;BME280;17710;52.520;13.352;2022-08-02T10:08:48;101505.34;;;28.85;29.80
31044;BME280;17710;52.520;13.352;2022-08-02T10:11:14;101510.72;;;29.13;29.64
31044;BME280;17710;52.520;13.352;2022-08-02T10:13:41;101514.19;;;29.41;29.12
31044;BME280;17710;52.520;13.352;2022-08-02T10:16:09;101520.34;;;29.25;28.70
31044;BME280;17710;52.520;13.352;2022-08-02T10:18:36;101517.31;;;28.75;29.64
31044;BME280;17710;52.520;13.352;2022-08-02T10:21:06;101516.38;;;28.57;30.32
31044;BME280;17710;52.520;13.352;2022-08-02T10:23:38;101522.47;;;28.68;30.05
31044;BME280;17710;52.520;13.352;2022-08-02T10:26:04;101512.88;;;28.91;29.35
31044;BME280;17710;52.520;13.352;2022-08-02T10:28:32;101506.22;;;28.59;30.05
31044;BME280;17710;52.520;13.352;2022-08-02T10:31:01;101517.34;;;28.65;29.80
31044;BME280;17710;52.520;13.352;2022-08-02T10:33:28;101521.44;;;28.69;29.71
31044;BME280;17710;52.520;13.352;2022-08-02T10:35:57;101518.94;;;28.58;29.60
31044;BME280;17710;52.520;13.352;2022-08-02T10:38:27;101508.53;;;28.26;30.08
31044;BME280;17710;52.520;13.352;2022-08-02T10:40:54;101516.34;;;28.66;30.08
31044;BME280;17710;52.520;13.352;2022-08-02T10:43:39;101514.31;;;28.68;29.98
31044;BME280;17710;52.520;13.352;2022-08-02T10:46:30;101510.06;;;28.83;29.39
31044;BME280;17710;52.520;13.352;2022-08-02T10:49:09;101520.03;;;29.10;29.48
31044;BME280;17710;52.520;13.352;2022-08-02T10:52:04;101497.19;;;29.39;29.54
31044;BME280;17710;52.520;13.352;2022-08-02T10:54:34;101491.75;;;29.03;28.54
31044;BME280;17710;52.520;13.352;2022-08-02T10:57:03;101486.31;;;29.39;28.61
31044;BME280;17710;52.520;13.352;2022-08-02T10:59:39;101465.47;;;29.55;27.97
31044;BME280;17710;52.520;13.352;2022-08-02T11:02:05;101462.75;;;29.81;28.03
31044;BME280;17710;52.520;13.352;2022-08-02T11:05:03;101462.00;;;29.97;28.20
31044;BME280;17710;52.520;13.352;2022-08-02T11:07:35;101466.00;;;29.85;27.77
31044;BME280;17710;52.520;13.352;2022-08-02T11:10:31;101464.31;;;28.79;28.59
31044;BME280;17710;52.520;13.352;2022-08-02T11:13:01;101469.06;;;28.95;28.06
31044;BME280;17710;52.520;13.352;2022-08-02T11:15:28;101465.84;;;29.17;28.12
31044;BME280;17710;52.520;13.352;2022-08-02T11:17:56;101461.81;;;29.39;27.92
31044;BME280;17710;52.520;13.352;2022-08-02T11:20:24;101457.88;;;29.67;28.43
31044;BME280;17710;52.520;13.352;2022-08-02T11:22:52;101459.97;;;29.47;27.96
31044;BME280;17710;52.520;13.352;2022-08-02T11:25:41;101440.97;;;29.55;27.44
31044;BME280;17710;52.520;13.352;2022-08-02T11:28:09;101439.41;;;29.79;27.18
31044;BME280;17710;52.520;13.352;2022-08-02T11:30:37;101440.22;;;29.97;27.41
31044;BME280;17710;52.520;13.352;2022-08-02T11:33:03;101439.44;;;29.87;27.45
31044;BME280;17710;52.520;13.352;2022-08-02T11:35:35;101449.66;;;29.85;26.82
31044;BME280;17710;52.520;13.352;2022-08-02T11:38:12;101441.38;;;29.68;26.40
31044;BME280;17710;52.520;13.352;2022-08-02T11:40:41;101451.13;;;29.45;27.22
31044;BME280;17710;52.520;13.352;2022-08-02T11:43:18;101451.56;;;29.58;26.77
31044;BME280;17710;52.520;13.352;2022-08-02T11:45:45;101449.75;;;29.93;26.37
31044;BME280;17710;52.520;13.352;2022-08-02T11:48:11;101448.31;;;29.89;26.40
31044;BME280;17710;52.520;13.352;2022-08-02T11:50:37;101447.81;;;29.59;25.70
31044;BME280;17710;52.520;13.352;2022-08-02T11:53:12;101445.09;;;29.59;26.37
31044;BME280;17710;52.520;13.352;2022-08-02T11:55:38;101434.19;;;29.85;26.64
31044;BME280;17710;52.520;13.352;2022-08-02T11:58:07;101436.34;;;29.82;26.14
31044;BME280;17710;52.520;13.352;2022-08-02T12:00:36;101438.50;;;29.96;26.13
31044;BME280;17710;52.520;13.352;2022-08-02T12:03:02;101435.28;;;29.75;25.79
31044;BME280;17710;52.520;13.352;2022-08-02T12:05:29;101429.41;;;29.87;25.58
31044;BME280;17710;52.520;13.352;2022-08-02T12:07:56;101421.50;;;30.02;25.07
31044;BME280;17710;52.520;13.352;2022-08-02T12:10:23;101415.78;;;30.21;25.48
31044;BME280;17710;52.520;13.352;2022-08-02T12:12:52;101415.91;;;30.03;26.69
31044;BME280;17710;52.520;13.352;2022-08-02T12:15:33;101418.94;;;30.00;27.01
31044;BME280;17710;52.520;13.352;2022-08-02T12:18:02;101415.91;;;30.03;26.86
31044;BME280;17710;52.520;13.352;2022-08-02T12:20:46;101422.13;;;30.38;26.57
31044;BME280;17710;52.520;13.352;2022-08-02T12:23:13;101404.84;;;30.13;25.88
31044;BME280;17710;52.520;13.352;2022-08-02T12:25:39;101413.78;;;30.39;25.83
31044;BME280;17710;52.520;13.352;2022-08-02T12:28:16;101409.31;;;30.22;26.24
31044;BME280;17710;52.520;13.352;2022-08-02T12:30:53;101397.09;;;29.58;26.53
31044;BME280;17710;52.520;13.352;2022-08-02T12:33:21;101399.56;;;29.78;26.13
31044;BME280;17710;52.520;13.352;2022-08-02T12:35:47;101396.50;;;30.15;25.76
31044;BME280;17710;52.520;13.352;2022-08-02T12:38:14;101398.16;;;30.49;25.79
31044;BME280;17710;52.520;13.352;2022-08-02T12:40:40;101406.94;;;30.19;26.22
31044;BME280;17710;52.520;13.352;2022-08-02T12:43:15;101406.78;;;30.29;26.00
31044;BME280;17710;52.520;13.352;2022-08-02T12:45:47;101404.47;;;30.66;26.05
31044;BME280;17710;52.520;13.352;2022-08-02T12:48:16;101398.19;;;30.98;25.74
31044;BME280;17710;52.520;13.352;2022-08-02T12:50:54;101397.69;;;31.19;25.72